Dickert, Alabama
Current Conditions -  °F | °C
As of 10:15 AM on Friday 24 Oct 2014 (Local Time) from KLGC Reporting Station
Clear Clear  
Wind Chill: 62°   Ceiling: Unl
Heat Index: 62°   Visibility: 10mi
Dew Point: 51°   Wind: 6mph
Humidity: 67%   Direction: 350°N
Pressure: 30.09"   Gusts: NA
Location:  33.1661°N, 85.5111°W
Report Text: KLGC 241515Z AUTO 35005KT 10SM CLR 17/10 A3009 RMK AO2 T01650104
Loading
Personal Weather Stations






























Interactive Weather Map New forecast layout! Learn more

10-Day Weather Forecast

Advertisements
Track Severe Weather on mobile